Time;durP1;ratioP1;P1;durP2;ratioP2;P2;SDS_P1;SDS_P2;PMS_P1;PMS_P2;Temp;Humidity;BMP_temperature;BMP_pressure;BME280_temperature;BME280_humidity;BME280_pressure;Samples;Min_cycle;Max_cycle;Signal;HPM_P1;HPM_P2
2023/03/24 00:01:57;;;;;;;5.73;3.00;;;;;;;8.33;100.00;99802.69;4846017;29;20045;-81
2023/03/24 00:04:23;;;;;;;4.40;2.80;;;;;;;8.37;100.00;99788.59;4845672;29;20052;-84
2023/03/24 00:06:51;;;;;;;3.93;2.80;;;;;;;8.37;100.00;99788.59;4845954;29;20139;-81
2023/03/24 00:09:18;;;;;;;5.33;3.37;;;;;;;8.48;100.00;99777.75;4844512;29;20178;-83
2023/03/24 00:11:45;;;;;;;4.77;3.00;;;;;;;8.46;100.00;99776.94;4845705;29;20101;-81
2023/03/24 00:14:11;;;;;;;4.65;2.95;;;;;;;8.40;100.00;99767.44;4876312;29;20092;-82
2023/03/24 00:16:41;;;;;;;6.53;3.77;;;;;;;8.42;100.00;99765.66;4842479;29;20041;-81
2023/03/24 00:19:09;;;;;;;7.17;3.70;;;;;;;8.43;100.00;99758.63;4843001;29;20483;-82
2023/03/24 00:21:36;;;;;;;5.25;3.60;;;;;;;8.40;100.00;99762.16;4842600;29;20080;-83
2023/03/24 00:24:04;;;;;;;4.97;3.10;;;;;;;8.38;100.00;99757.84;4857999;29;20049;-81
2023/03/24 00:26:31;;;;;;;5.60;3.43;;;;;;;8.35;100.00;99757.94;4858259;29;20047;-81
2023/03/24 00:28:58;;;;;;;5.57;4.03;;;;;;;8.35;100.00;99760.59;4857629;29;20061;-85
2023/03/24 00:31:25;;;;;;;6.35;3.65;;;;;;;8.39;100.00;99751.69;4845144;29;20048;-81
2023/03/24 00:33:52;;;;;;;5.93;4.03;;;;;;;8.38;100.00;99734.16;4860252;29;20135;-81
2023/03/24 00:36:21;;;;;;;8.85;4.75;;;;;;;8.42;100.00;99733.19;4876254;29;20044;-81
2023/03/24 00:38:49;;;;;;;7.30;4.00;;;;;;;8.38;100.00;99729.78;4845954;29;20061;-84
2023/03/24 00:41:18;;;;;;;10.00;4.63;;;;;;;8.36;100.00;99731.59;4875669;29;20105;-81
2023/03/24 00:43:46;;;;;;;8.52;5.03;;;;;;;8.42;100.00;99726.16;4845694;29;20045;-82
2023/03/24 00:46:26;;;;;;;8.33;4.87;;;;;;;8.37;100.00;99721.91;4861058;29;20101;-81
2023/03/24 00:49:02;;;;;;;7.00;4.45;;;;;;;8.37;100.00;99721.91;4876345;29;20112;-84
2023/03/24 00:51:34;;;;;;;10.17;5.73;;;;;;;8.44;100.00;99710.31;4860474;29;20049;-83
2023/03/24 00:54:01;;;;;;;10.70;5.47;;;;;;;8.45;100.00;99702.38;4834167;29;20042;-81
2023/03/24 00:56:31;;;;;;;10.30;5.53;;;;;;;8.48;100.00;99698.78;4860303;29;20131;-81
2023/03/24 00:59:01;;;;;;;7.57;5.72;;;;;;;8.34;100.00;99701.78;4835011;29;20486;-81
2023/03/24 01:01:32;;;;;;;10.13;6.23;;;;;;;8.38;100.00;99684.16;4866246;29;20049;-81
2023/03/24 01:04:00;;;;;;;12.20;5.68;;;;;;;8.43;100.00;99696.31;4877356;29;20044;-81
2023/03/24 01:06:27;;;;;;;10.03;6.00;;;;;;;8.44;100.00;99698.03;4858750;29;20404;-82
2023/03/24 01:08:56;;;;;;;10.55;6.63;;;;;;;8.39;100.00;99692.00;4845885;29;20053;-84
2023/03/24 01:11:25;;;;;;;10.43;6.90;;;;;;;8.38;100.00;99695.56;4845874;29;20155;-83
2023/03/24 01:13:53;;;;;;;10.40;6.27;;;;;;;8.31;100.00;99696.59;4846556;29;20055;-83
2023/03/24 01:16:24;;;;;;;10.50;6.90;;;;;;;8.33;100.00;99692.16;4861905;29;20049;-83
2023/03/24 01:18:51;;;;;;;11.03;6.97;;;;;;;8.35;100.00;99695.66;4862245;29;20042;-82
2023/03/24 01:21:18;;;;;;;11.50;6.70;;;;;;;8.36;100.00;99697.38;4844291;29;20418;-84
2023/03/24 01:23:45;;;;;;;11.25;7.07;;;;;;;8.39;100.00;99689.38;4861432;29;20052;-82
2023/03/24 01:26:12;;;;;;;10.70;7.97;;;;;;;8.38;100.00;99685.03;4861314;29;20495;-81
2023/03/24 01:28:42;;;;;;;9.60;6.37;;;;;;;8.35;100.00;99677.22;4857726;29;20052;-83
2023/03/24 01:31:09;;;;;;;10.47;6.80;;;;;;;8.41;100.00;99676.22;4842565;29;20419;-82
2023/03/24 01:33:37;;;;;;;10.55;6.07;;;;;;;8.37;100.00;99671.91;4842515;29;20053;-81
2023/03/24 01:36:05;;;;;;;13.45;6.97;;;;;;;8.38;100.00;99671.88;4836558;29;20168;-82
2023/03/24 01:38:32;;;;;;;11.53;6.67;;;;;;;8.37;100.00;99662.25;4842763;29;20737;-83
2023/03/24 01:40:59;;;;;;;10.97;6.37;;;;;;;8.38;100.00;99668.38;4831529;29;20547;-81
2023/03/24 01:43:30;;;;;;;9.68;6.85;;;;;;;8.33;100.00;99657.97;4842319;29;20063;-84
2023/03/24 01:46:01;;;;;;;17.75;8.10;;;;;;;8.41;100.00;99657.78;4849596;29;20075;-83
2023/03/24 01:48:59;;;;;;;12.75;8.05;;;;;;;8.41;100.00;99650.75;4845275;29;20488;-84
2023/03/24 01:51:34;;;;;;;12.57;7.00;;;;;;;8.51;100.00;99646.09;4830411;29;20056;-81
2023/03/24 01:54:10;;;;;;;10.63;7.30;;;;;;;8.48;100.00;99646.16;4844171;29;20069;-82
2023/03/24 01:56:41;;;;;;;12.88;7.53;;;;;;;8.42;100.00;99638.44;4845226;29;20052;-82
2023/03/24 01:59:15;;;;;;;11.93;8.10;;;;;;;8.48;100.00;99621.59;4843684;29;20037;-81
2023/03/24 02:01:43;;;;;;;9.63;6.87;;;;;;;8.46;100.00;99613.75;4848624;29;20052;-84
2023/03/24 02:04:10;;;;;;;11.18;6.57;;;;;;;8.43;100.00;99612.09;4848382;29;20041;-81
2023/03/24 02:06:41;;;;;;;11.25;7.18;;;;;;;8.46;100.00;99605.84;4863412;29;20049;-81
2023/03/24 02:09:09;;;;;;;10.70;7.18;;;;;;;8.40;100.00;99595.50;4879170;29;20047;-81
2023/03/24 02:11:38;;;;;;;9.13;6.28;;;;;;;8.36;100.00;99599.13;4848021;29;20074;-82
2023/03/24 02:14:06;;;;;;;12.43;7.27;;;;;;;8.37;100.00;99592.97;4847724;29;20463;-81
2023/03/24 02:16:58;;;;;;;9.05;6.10;;;;;;;8.37;100.00;99583.28;4862992;29;20048;-81
2023/03/24 02:19:49;;;;;;;9.63;6.70;;;;;;;8.37;100.00;99575.41;4859508;29;20042;-81
2023/03/24 02:22:22;;;;;;;11.30;7.27;;;;;;;8.42;100.00;99562.13;4846881;29;20052;-82
2023/03/24 02:25:21;;;;;;;11.35;6.80;;;;;;;8.39;100.00;99563.06;4855130;29;20523;-82
2023/03/24 02:27:58;;;;;;;8.90;6.27;;;;;;;8.43;100.00;99555.94;4844645;29;20057;-81
2023/03/24 02:31:02;;;;;;;9.63;6.38;;;;;;;8.40;100.00;99550.75;4853075;29;20041;-81
2023/03/24 02:33:43;;;;;;;9.65;6.22;;;;;;;8.40;100.00;99551.63;4859759;29;20052;-81
2023/03/24 02:36:32;;;;;;;9.10;6.00;;;;;;;8.40;100.00;99550.75;4861121;29;20046;-84
2023/03/24 02:39:23;;;;;;;9.87;6.60;;;;;;;8.41;100.00;99542.84;4862702;29;20045;-81
2023/03/24 02:41:58;;;;;;;8.77;6.37;;;;;;;8.49;100.00;99547.00;4858833;29;20102;-83
2023/03/24 02:44:50;;;;;;;9.63;6.87;;;;;;;8.48;100.00;99537.38;4861294;29;20117;-80
2023/03/24 02:47:45;;;;;;;9.60;6.13;;;;;;;8.49;100.00;99531.19;4862342;29;20517;-80
2023/03/24 02:50:18;;;;;;;10.38;6.10;;;;;;;8.45;100.00;99528.66;4877914;29;20520;-80
2023/03/24 02:52:49;;;;;;;8.55;6.25;;;;;;;8.42;100.00;99518.25;4846853;29;20502;-81
2023/03/24 02:55:20;;;;;;;8.80;6.63;;;;;;;8.44;100.00;99515.56;4877704;29;20048;-81
2023/03/24 02:58:06;;;;;;;9.60;6.30;;;;;;;8.53;100.00;99506.53;4877623;29;20040;-80
2023/03/24 03:00:58;;;;;;;9.48;6.13;;;;;;;8.52;100.00;99503.03;4844282;29;20562;-81
2023/03/24 03:03:33;;;;;;;8.87;6.50;;;;;;;8.51;100.00;99492.56;4858280;29;20046;-81
2023/03/24 03:06:11;;;;;;;8.35;6.25;;;;;;;8.63;100.00;99495.66;4910826;23;20065;-81
2023/03/24 03:08:38;;;;;;;8.80;6.07;;;;;;;8.57;100.00;99490.56;4860342;29;20038;-77
2023/03/24 03:11:07;;;;;;;7.67;5.27;;;;;;;8.53;100.00;99488.09;4839501;29;20065;-79
2023/03/24 03:13:37;;;;;;;9.70;6.47;;;;;;;8.59;100.00;99493.19;4837866;29;20041;-80
2023/03/24 03:16:17;;;;;;;8.80;5.90;;;;;;;8.56;100.00;99494.09;4859978;29;20056;-81
2023/03/24 03:18:54;;;;;;;9.13;5.75;;;;;;;8.53;100.00;99501.25;4859879;29;20041;-82
2023/03/24 03:21:23;;;;;;;9.85;6.55;;;;;;;8.54;100.00;99487.19;4857677;29;20049;-79
2023/03/24 03:23:57;;;;;;;8.65;6.40;;;;;;;8.60;100.00;99494.91;4842606;29;20064;-80
2023/03/24 03:26:31;;;;;;;8.63;5.97;;;;;;;8.56;100.00;99486.22;4826446;29;20053;-80
2023/03/24 03:29:02;;;;;;;10.50;6.23;;;;;;;8.59;100.00;99475.59;4852448;29;20048;-81
2023/03/24 03:31:36;;;;;;;8.23;5.60;;;;;;;8.58;100.00;99470.41;4828304;29;20169;-80
2023/03/24 03:34:11;;;;;;;9.38;6.28;;;;;;;8.59;100.00;99472.13;4858431;29;20048;-80
2023/03/24 03:36:45;;;;;;;6.67;5.67;;;;;;;8.59;100.00;99466.84;4850965;29;20124;-79
2023/03/24 03:39:23;;;;;;;9.98;6.40;;;;;;;8.66;100.00;99463.09;4856099;29;20074;-81
2023/03/24 03:41:49;;;;;;;10.20;6.40;;;;;;;8.70;100.00;99456.84;4855728;29;20041;-79
2023/03/24 03:44:16;;;;;;;10.38;6.57;;;;;;;8.71;100.00;99450.66;4842059;29;20037;-79
2023/03/24 03:46:43;;;;;;;7.32;5.55;;;;;;;8.68;100.00;99450.75;4842031;29;20098;-80
2023/03/24 03:49:10;;;;;;;10.38;5.93;;;;;;;8.70;100.00;99456.84;4852619;29;20046;-79
2023/03/24 03:51:36;;;;;;;8.32;6.07;;;;;;;8.68;100.00;99459.53;4856584;29;20041;-80
2023/03/24 03:54:06;;;;;;;7.18;5.40;;;;;;;8.71;100.00;99448.03;4838150;29;20133;-81
2023/03/24 03:56:35;;;;;;;7.22;5.75;;;;;;;8.77;100.00;99453.09;4836667;29;20038;-81
2023/03/24 03:59:03;;;;;;;8.40;6.68;;;;;;;8.79;100.00;99456.53;4842535;29;20055;-80
2023/03/24 04:01:35;;;;;;;8.32;5.82;;;;;;;8.85;100.00;99448.44;4830907;29;20049;-80
2023/03/24 04:04:19;;;;;;;10.18;6.55;;;;;;;8.98;100.00;99455.00;4856958;29;20460;-79
2023/03/24 04:07:09;;;;;;;7.13;5.22;;;;;;;9.01;100.00;99449.66;4840702;29;20046;-80
2023/03/24 04:09:57;;;;;;;6.18;5.05;;;;;;;8.94;100.00;99440.22;4839697;29;20034;-79
2023/03/24 04:12:41;;;;;;;5.95;4.57;;;;;;;8.91;100.00;99436.81;4839647;29;20515;-80
2023/03/24 04:15:14;;;;;;;6.82;4.82;;;;;;;8.85;100.00;99435.28;4858296;29;20046;-78
2023/03/24 04:18:19;;;;;;;8.65;5.78;;;;;;;8.86;100.00;99434.34;4860679;29;20056;-81
2023/03/24 04:21:05;;;;;;;6.25;4.80;;;;;;;8.85;100.00;99424.72;4843745;29;20090;-80
2023/03/24 04:23:53;;;;;;;6.03;5.03;;;;;;;8.92;100.00;99426.25;4834325;29;20053;-80
2023/03/24 04:26:41;;;;;;;6.45;4.68;;;;;;;8.90;100.00;99414.03;4860396;29;20073;-79
2023/03/24 04:29:16;;;;;;;7.38;5.07;;;;;;;8.91;100.00;99408.75;4861767;29;20041;-79
2023/03/24 04:31:52;;;;;;;7.00;5.20;;;;;;;8.90;100.00;99393.81;4863495;29;20447;-79
2023/03/24 04:34:24;;;;;;;5.70;4.63;;;;;;;8.86;100.00;99384.31;4842553;29;20682;-78
2023/03/24 04:37:08;;;;;;;6.75;4.80;;;;;;;8.85;100.00;99381.75;4859502;29;20050;-79
2023/03/24 04:39:37;;;;;;;6.88;4.50;;;;;;;8.82;100.00;99377.41;4842986;29;20500;-81
2023/03/24 04:42:08;;;;;;;6.32;4.82;;;;;;;8.87;100.00;99378.13;4856677;29;20499;-81
2023/03/24 04:44:35;;;;;;;7.03;4.88;;;;;;;8.83;100.00;99376.53;4859713;29;20076;-79
2023/03/24 04:47:03;;;;;;;6.78;5.25;;;;;;;8.81;100.00;99369.56;4858987;29;20056;-80
2023/03/24 04:49:31;;;;;;;6.78;5.25;;;;;;;8.78;100.00;99362.66;4829239;29;20046;-79
2023/03/24 04:51:58;;;;;;;9.05;5.85;;;;;;;8.85;100.00;99358.03;4866018;29;20064;-79
2023/03/24 04:54:24;;;;;;;8.93;6.45;;;;;;;8.91;100.00;99358.69;4836954;29;20118;-79
2023/03/24 04:56:55;;;;;;;8.50;6.03;;;;;;;8.89;100.00;99360.50;4826064;29;20053;-79
2023/03/24 04:59:22;;;;;;;7.85;6.10;;;;;;;8.85;100.00;99356.25;4850573;29;20042;-79
2023/03/24 05:01:49;;;;;;;10.13;7.18;;;;;;;8.90;100.00;99354.31;4860691;29;20517;-80
2023/03/24 05:04:17;;;;;;;9.10;6.57;;;;;;;8.90;100.00;99356.94;4843448;29;20042;-79
2023/03/24 05:06:48;;;;;;;8.95;6.88;;;;;;;8.91;100.00;99348.16;4838998;29;20050;-79
2023/03/24 05:09:16;;;;;;;9.23;6.65;;;;;;;8.98;100.00;99349.63;4843623;29;20109;-79
2023/03/24 05:11:44;;;;;;;9.02;7.22;;;;;;;9.02;100.00;99337.25;4843442;29;20034;-79
2023/03/24 05:14:11;;;;;;;9.93;7.57;;;;;;;9.05;100.00;99323.09;4854494;29;20041;-81
2023/03/24 05:16:37;;;;;;;12.13;7.10;;;;;;;9.14;100.00;99325.38;4855026;29;20464;-80
2023/03/24 05:19:04;;;;;;;11.02;7.65;;;;;;;9.17;100.00;99322.66;4857909;29;20065;-80
2023/03/24 05:21:31;;;;;;;9.48;7.10;;;;;;;9.15;100.00;99308.66;4844966;29;20049;-79
2023/03/24 05:23:59;;;;;;;9.00;7.38;;;;;;;9.23;100.00;99314.50;4864337;29;20435;-79
2023/03/24 05:26:26;;;;;;;11.20;7.03;;;;;;;9.18;100.00;99313.84;4866060;29;20110;-79
2023/03/24 05:28:53;;;;;;;9.88;6.93;;;;;;;9.23;100.00;99312.75;4848171;29;20133;-81
2023/03/24 05:31:19;;;;;;;8.40;6.70;;;;;;;9.24;100.00;99314.44;4855425;29;20106;-79
2023/03/24 05:33:47;;;;;;;8.45;6.50;;;;;;;9.35;100.00;99318.50;4844219;29;20144;-83
2023/03/24 05:36:14;;;;;;;9.75;7.03;;;;;;;9.35;100.00;99316.72;4858660;29;20054;-81
2023/03/24 05:38:40;;;;;;;10.15;6.65;;;;;;;9.36;100.00;99313.16;4860413;29;20132;-79
2023/03/24 05:41:07;;;;;;;8.73;6.97;;;;;;;9.36;100.00;99325.50;4829290;29;20045;-80
2023/03/24 05:43:34;;;;;;;9.35;6.97;;;;;;;9.37;100.00;99321.94;4859004;29;20783;-80
2023/03/24 05:46:00;;;;;;;12.35;7.00;;;;;;;9.47;100.00;99313.63;4843948;29;20050;-80
2023/03/24 05:48:27;;;;;;;9.07;6.93;;;;;;;9.57;100.00;99316.75;4828763;29;20077;-80
2023/03/24 05:50:54;;;;;;;10.70;6.82;;;;;;;9.63;100.00;99315.69;4860367;29;20049;-80
2023/03/24 05:53:21;;;;;;;9.13;6.65;;;;;;;9.69;100.00;99303.13;4857006;29;20058;-81
2023/03/24 05:55:47;;;;;;;8.20;6.38;;;;;;;9.75;100.00;99305.53;4837327;29;20625;-80
2023/03/24 05:58:14;;;;;;;9.85;6.63;;;;;;;9.85;100.00;99290.22;4839098;29;20060;-79
2023/03/24 06:00:41;;;;;;;8.15;6.50;;;;;;;9.89;100.00;99297.06;4853180;29;20049;-80
2023/03/24 06:03:07;;;;;;;7.05;5.95;;;;;;;9.89;100.00;99283.88;4843157;29;20616;-79
2023/03/24 06:05:34;;;;;;;8.93;6.20;;;;;;;10.01;100.00;99291.31;4833370;29;20045;-82
2023/03/24 06:08:02;;;;;;;9.30;5.63;;;;;;;9.93;100.00;99280.22;4871728;29;20045;-80
2023/03/24 06:10:29;;;;;;;8.40;5.70;;;;;;;9.95;100.00;99283.63;4858031;29;20250;-81
2023/03/24 06:12:55;;;;;;;7.95;5.70;;;;;;;10.02;100.00;99273.69;4842053;29;20054;-80
2023/03/24 06:15:26;;;;;;;6.57;5.15;;;;;;;10.09;100.00;99278.69;4845139;29;20076;-80
2023/03/24 06:17:54;;;;;;;8.95;5.80;;;;;;;10.24;100.00;99271.06;4841876;29;20057;-80
2023/03/24 06:20:21;;;;;;;7.60;6.35;;;;;;;10.32;100.00;99268.97;4858082;29;20474;-80
2023/03/24 06:22:48;;;;;;;9.13;5.38;;;;;;;10.30;100.00;99276.94;4852153;29;20042;-81
2023/03/24 06:25:16;;;;;;;7.45;5.82;;;;;;;10.28;100.00;99260.34;4855333;29;20045;-80
2023/03/24 06:27:46;;;;;;;6.70;4.90;;;;;;;10.28;100.00;99264.75;4871070;29;20045;-79
2023/03/24 06:30:15;;;;;;;6.60;5.30;;;;;;;10.44;100.00;99265.84;4863275;29;20037;-81
2023/03/24 06:32:45;;;;;;;6.95;4.72;;;;;;;10.50;100.00;99262.91;4822569;29;20337;-80
2023/03/24 06:35:14;;;;;;;5.68;4.35;;;;;;;10.62;100.00;99269.47;4870226;29;20110;-79
2023/03/24 06:37:40;;;;;;;5.63;4.32;;;;;;;10.64;100.00;99260.53;4865374;29;20046;-81
2023/03/24 06:40:10;;;;;;;6.43;4.25;;;;;;;10.64;100.00;99267.63;4855886;29;20056;-80
2023/03/24 06:42:36;;;;;;;5.63;4.30;;;;;;;10.65;100.00;99258.75;4857212;29;20053;-80
2023/03/24 06:45:03;;;;;;;5.20;4.53;;;;;;;10.68;100.00;99253.38;4887831;29;20066;-80
2023/03/24 06:47:30;;;;;;;7.22;4.88;;;;;;;10.65;100.00;99254.34;4889082;29;20126;-80
2023/03/24 06:49:57;;;;;;;5.97;4.55;;;;;;;10.74;100.00;99254.88;4870101;29;20056;-80
2023/03/24 06:52:27;;;;;;;6.15;4.55;;;;;;;10.78;100.00;99245.91;4857301;29;20495;-80
2023/03/24 06:54:53;;;;;;;7.47;4.28;;;;;;;10.90;100.00;99247.97;4856963;29;20049;-81
2023/03/24 06:57:20;;;;;;;6.00;4.20;;;;;;;10.93;100.00;99240.81;4846365;29;20140;-81
2023/03/24 06:59:47;;;;;;;4.72;3.85;;;;;;;11.04;100.00;99232.38;4855750;29;20052;-79
2023/03/24 07:02:14;;;;;;;8.35;4.63;;;;;;;11.10;100.00;99231.22;4854089;29;20038;-81
2023/03/24 07:04:41;;;;;;;5.82;4.35;;;;;;;11.12;100.00;99224.97;4857284;29;20041;-80
2023/03/24 07:07:08;;;;;;;5.00;3.90;;;;;;;11.15;100.00;99226.59;4873107;29;20677;-80
2023/03/24 07:09:55;;;;;;;4.72;3.80;;;;;;;11.17;100.00;99217.66;4839304;29;20050;-80
2023/03/24 07:12:22;;;;;;;5.55;4.03;;;;;;;11.21;100.00;99221.03;4829598;29;20049;-80
2023/03/24 07:14:49;;;;;;;5.20;3.35;;;;;;;11.27;100.00;99229.56;4831052;29;20065;-80
2023/03/24 07:17:16;;;;;;;4.50;3.50;;;;;;;11.32;100.00;99225.81;4857803;29;20100;-80
2023/03/24 07:19:46;;;;;;;4.35;3.45;;;;;;;11.31;100.00;99214.38;4866327;29;20049;-79
2023/03/24 07:22:12;;;;;;;5.80;3.72;;;;;;;11.39;100.00;99200.81;4875077;29;20488;-80
2023/03/24 07:24:39;;;;;;;5.13;3.70;;;;;;;11.60;100.00;99213.00;4859202;29;20053;-80
2023/03/24 07:27:08;;;;;;;5.78;3.42;;;;;;;11.75;100.00;99207.00;4860821;29;20596;-80
2023/03/24 07:29:35;;;;;;;4.00;3.03;;;;;;;11.92;100.00;99210.63;4851670;29;20065;-81
2023/03/24 07:32:02;;;;;;;4.13;3.50;;;;;;;12.01;100.00;99210.19;4873738;29;20047;-79
2023/03/24 07:34:30;;;;;;;4.20;3.20;;;;;;;12.08;100.00;99201.84;4874748;29;20079;-81
2023/03/24 07:36:57;;;;;;;4.30;3.58;;;;;;;12.17;100.00;99211.13;4873200;29;20046;-80
2023/03/24 07:39:27;;;;;;;6.80;3.53;;;;;;;12.29;100.00;99202.59;4859962;29;20054;-81
2023/03/24 07:41:53;;;;;;;3.97;2.95;;;;;;;12.31;100.00;99195.41;4841680;29;20043;-80
2023/03/24 07:44:21;;;;;;;4.30;3.63;;;;;;;12.42;100.00;99196.66;4856611;29;20053;-79
2023/03/24 07:46:48;;;;;;;4.13;3.10;;;;;;;12.40;100.00;99183.50;4838560;29;20053;-81
2023/03/24 07:49:14;;;;;;;4.28;3.15;;;;;;;12.34;100.00;99200.53;4823594;29;20049;-80
2023/03/24 07:51:45;;;;;;;4.10;3.10;;;;;;;12.37;100.00;99184.53;4856625;29;20491;-80
2023/03/24 07:54:12;;;;;;;5.65;3.20;;;;;;;12.27;100.00;99193.84;4826580;29;20049;-82
2023/03/24 07:56:38;;;;;;;6.00;3.40;;;;;;;12.24;100.00;99185.22;4856426;29;20562;-81
2023/03/24 07:59:06;;;;;;;4.25;3.50;;;;;;;12.14;100.00;99179.53;4822077;29;20045;-80
2023/03/24 08:01:35;;;;;;;4.28;3.88;;;;;;;12.05;100.00;99170.25;4867622;29;20686;-80
2023/03/24 08:04:05;;;;;;;4.90;3.60;;;;;;;12.04;100.00;99168.56;4880260;29;20056;-80
2023/03/24 08:06:31;;;;;;;5.15;3.60;;;;;;;11.95;100.00;99181.38;4837265;29;20149;-80
2023/03/24 08:08:58;;;;;;;8.95;3.70;;;;;;;11.98;100.00;99200.59;4848797;29;20081;-80
2023/03/24 08:11:25;;;;;;;5.55;3.90;;;;;;;11.89;100.00;99201.06;4839574;29;20041;-83
2023/03/24 08:13:51;;;;;;;4.97;3.80;;;;;;;11.83;100.00;99193.41;4858874;29;20069;-80
2023/03/24 08:16:18;;;;;;;6.10;4.10;;;;;;;11.80;100.00;99196.22;4865275;29;20061;-79
2023/03/24 08:18:45;;;;;;;5.47;3.88;;;;;;;11.72;100.00;99193.06;4863682;29;20616;-81
2023/03/24 08:21:11;;;;;;;7.38;3.90;;;;;;;11.74;100.00;99196.47;4857327;29;20519;-80
2023/03/24 08:23:38;;;;;;;5.82;3.95;;;;;;;11.71;100.00;99191.34;4860080;29;20045;-81
2023/03/24 08:26:06;;;;;;;5.43;3.95;;;;;;;11.71;100.00;99197.50;4847701;29;20052;-80
2023/03/24 08:28:32;;;;;;;6.10;4.40;;;;;;;11.68;100.00;99194.13;4857152;29;20928;-80
2023/03/24 08:30:59;;;;;;;4.72;4.20;;;;;;;11.66;100.00;99186.28;4839227;29;20050;-80
2023/03/24 08:33:26;;;;;;;5.57;4.45;;;;;;;11.62;100.00;99191.81;4840415;29;20144;-80
2023/03/24 08:35:56;;;;;;;4.95;4.20;;;;;;;11.63;100.00;99188.22;4857153;29;20433;-79
2023/03/24 08:38:29;;;;;;;5.93;4.10;;;;;;;11.63;100.00;99194.38;4877026;29;20050;-79
2023/03/24 08:41:01;;;;;;;7.05;4.00;;;;;;;11.61;100.00;99190.09;4863276;29;20056;-80
2023/03/24 08:43:29;;;;;;;5.38;4.03;;;;;;;11.60;100.00;99178.63;4863096;29;20049;-80
2023/03/24 08:45:59;;;;;;;6.13;4.45;;;;;;;11.57;100.00;99186.72;4857054;29;20053;-80
2023/03/24 08:48:27;;;;;;;5.30;4.30;;;;;;;11.61;100.00;99174.22;4838390;29;20074;-80
2023/03/24 08:50:54;;;;;;;6.40;4.50;;;;;;;11.64;100.00;99182.00;4848144;29;20033;-81
2023/03/24 08:53:21;;;;;;;4.82;4.10;;;;;;;11.69;100.00;99186.13;4870046;29;20053;-79
2023/03/24 08:55:47;;;;;;;5.80;4.10;;;;;;;11.73;100.00;99179.75;4870928;29;20420;-81
2023/03/24 08:58:16;;;;;;;5.93;3.97;;;;;;;11.82;100.00;99176.69;4840342;29;20510;-78
2023/03/24 09:00:44;;;;;;;6.45;3.80;;;;;;;11.87;100.00;99165.88;4836297;29;20129;-79
2023/03/24 09:03:16;;;;;;;7.65;4.40;;;;;;;12.01;100.00;99171.34;4852287;29;20049;-78
2023/03/24 09:05:45;;;;;;;5.32;4.20;;;;;;;12.09;100.00;99170.94;4847015;29;20038;-81
2023/03/24 09:08:13;;;;;;;4.40;3.63;;;;;;;12.20;100.00;99176.59;4843595;29;20400;-79
2023/03/24 09:10:41;;;;;;;5.43;4.35;;;;;;;12.26;100.00;99178.03;4842525;29;20050;-80
2023/03/24 09:13:08;;;;;;;4.88;3.80;;;;;;;12.27;100.00;99179.75;4853364;29;20045;-79
2023/03/24 09:15:35;;;;;;;5.07;3.53;;;;;;;12.33;100.00;99188.25;4861669;29;20037;-80
2023/03/24 09:18:02;;;;;;;5.47;3.80;;;;;;;12.35;100.00;99183.72;4841742;29;20060;-81
2023/03/24 09:20:29;;;;;;;5.07;3.60;;;;;;;12.30;100.00;99185.75;4845146;29;20505;-78
2023/03/24 09:22:55;;;;;;;5.30;3.60;;;;;;;12.36;100.00;99185.47;4835911;29;20060;-79
2023/03/24 09:25:22;;;;;;;5.93;3.97;;;;;;;12.48;100.00;99191.06;4866517;29;20059;-80
2023/03/24 09:27:49;;;;;;;4.57;3.60;;;;;;;12.50;100.00;99194.47;4853797;29;20042;-83
2023/03/24 09:30:17;;;;;;;5.80;3.38;;;;;;;12.57;100.00;99194.06;4839212;29;20437;-81
2023/03/24 09:32:44;;;;;;;5.20;3.63;;;;;;;12.62;100.00;99204.44;4841967;29;20048;-80
2023/03/24 09:35:11;;;;;;;5.05;3.88;;;;;;;12.65;100.00;99201.63;4849514;29;21409;-81
2023/03/24 09:37:40;;;;;;;5.75;3.67;;;;;;;12.76;100.00;99201.06;4840945;29;20049;-80
2023/03/24 09:40:07;;;;;;;8.23;3.75;;;;;;;12.90;100.00;99207.34;4839722;29;20055;-81
2023/03/24 09:42:39;;;;;;;4.25;3.35;;;;;;;13.09;100.00;99215.16;4855995;29;20112;-80
2023/03/24 09:45:12;;;;;;;4.57;3.45;;;;;;;13.19;100.00;99215.53;4825177;29;20277;-82
2023/03/24 09:47:41;;;;;;;3.97;2.92;;;;;;;13.23;100.00;99219.78;4842743;29;20046;-80
2023/03/24 09:50:32;;;;;;;5.93;3.35;;;;;;;13.16;100.00;99223.66;4838601;29;20050;-82
2023/03/24 09:53:05;;;;;;;5.70;3.60;;;;;;;13.18;100.00;99225.28;4851947;29;20053;-81
2023/03/24 09:55:34;;;;;;;5.30;3.42;;;;;;;13.19;100.00;99216.41;4826627;29;20483;-80
2023/03/24 09:58:07;;;;;;;6.30;3.95;;;;;;;13.24;100.00;99225.00;4855808;29;20037;-82
2023/03/24 10:00:35;;;;;;;5.93;3.75;;;;;;;13.25;100.00;99228.50;4844778;29;20049;-80
2023/03/24 10:03:20;;;;;;;4.40;3.40;;;;;;;13.15;100.00;99222.81;4814521;29;20854;-81
2023/03/24 10:06:00;;;;;;;4.75;3.05;;;;;;;13.17;100.00;99228.88;4830894;29;20041;-82
2023/03/24 10:08:35;;;;;;;4.32;3.50;;;;;;;13.29;100.00;99234.50;4825298;29;20528;-81
2023/03/24 10:11:26;;;;;;;4.43;3.95;;;;;;;13.39;100.00;99220.66;4857525;29;20049;-80
2023/03/24 10:14:12;;;;;;;7.50;5.03;;;;;;;13.40;100.00;99222.34;4846418;29;20052;-79
2023/03/24 10:16:53;;;;;;;5.47;4.13;;;;;;;13.37;100.00;99230.50;4841995;29;20042;-82
2023/03/24 10:19:31;;;;;;;5.90;4.15;;;;;;;13.31;100.00;99240.56;4839573;29;20042;-81
2023/03/24 10:22:24;;;;;;;6.20;5.57;;;;;;;13.33;100.00;99236.03;4842507;29;20508;-81
2023/03/24 10:25:18;;;;;;;5.43;4.80;;;;;;;13.26;100.00;99243.47;4850617;29;20950;-78
2023/03/24 10:28:26;;;;;;;3.83;3.38;;;;;;;13.38;100.00;99224.25;4859751;29;20045;-80
2023/03/24 10:30:55;;;;;;;4.50;3.35;;;;;;;13.57;100.00;99236.50;4863115;29;20061;-80
2023/03/24 10:33:22;;;;;;;3.97;3.25;;;;;;;13.73;100.00;99238.22;4832587;29;20053;-77
2023/03/24 10:36:04;;;;;;;5.03;3.22;;;;;;;13.77;100.00;99237.06;4844534;29;20059;-80
2023/03/24 10:38:33;;;;;;;4.13;3.08;;;;;;;13.76;100.00;99235.38;4843824;29;20618;-81
2023/03/24 10:41:00;;;;;;;4.03;2.85;;;;;;;13.84;100.00;99237.59;4856417;29;20053;-81
2023/03/24 10:43:28;;;;;;;3.70;2.70;;;;;;;13.93;100.00;99221.13;4863145;29;20058;-81
2023/03/24 10:45:56;;;;;;;6.93;6.32;;;;;;;14.34;100.00;99215.22;4850235;29;20140;-81
2023/03/24 10:49:09;;;;;;;3.97;3.33;;;;;;;14.76;100.00;99208.34;4848925;29;20049;-81
2023/03/24 10:51:35;;;;;;;2.80;2.40;;;;;;;14.97;100.00;99228.31;4863720;29;20064;-80
2023/03/24 10:54:29;;;;;;;2.50;1.90;;;;;;;15.02;98.43;99223.53;4846067;29;20046;-81
2023/03/24 10:57:02;;;;;;;2.30;1.80;;;;;;;15.06;98.20;99229.56;4848340;29;20058;-81
2023/03/24 10:59:30;;;;;;;6.93;1.98;;;;;;;15.05;94.87;99231.34;4858602;29;20298;-81
2023/03/24 11:02:08;;;;;;;2.80;1.85;;;;;;;14.96;92.67;99229.22;4860919;29;20129;-82
2023/03/24 11:04:38;;;;;;;3.20;1.85;;;;;;;14.91;94.04;99244.63;4857281;29;20065;-79
2023/03/24 11:07:19;;;;;;;2.92;1.77;;;;;;;14.84;91.32;99241.47;4844759;29;20053;-82
2023/03/24 11:09:56;;;;;;;3.17;1.75;;;;;;;14.86;91.05;99255.53;4866728;29;20066;-81
2023/03/24 11:12:28;;;;;;;2.30;1.90;;;;;;;14.95;89.41;99261.25;4854973;29;20050;-79
2023/03/24 11:15:09;;;;;;;2.38;1.63;;;;;;;14.97;89.32;99252.25;4838302;29;20149;-80
2023/03/24 11:18:15;;;;;;;2.47;1.77;;;;;;;15.16;89.62;99247.50;4849704;29;20058;-80
2023/03/24 11:20:56;;;;;;;2.25;1.60;;;;;;;15.42;86.73;99240.56;4860967;29;20049;-80
2023/03/24 11:23:30;;;;;;;3.45;2.00;;;;;;;15.46;82.71;99247.38;4861131;29;20128;-81
2023/03/24 11:26:07;;;;;;;4.22;1.60;;;;;;;15.61;83.70;99242.94;4847204;29;20120;-80
2023/03/24 11:28:37;;;;;;;2.90;1.42;;;;;;;15.82;82.89;99245.19;4860290;29;20064;-80
2023/03/24 11:31:14;;;;;;;2.50;1.65;;;;;;;16.08;81.64;99255.00;4865804;29;20060;-79
2023/03/24 11:33:45;;;;;;;2.40;1.35;;;;;;;16.23;79.55;99266.47;4849461;29;20063;-80
2023/03/24 11:36:31;;;;;;;2.25;1.40;;;;;;;16.36;79.06;99261.16;4862740;29;20061;-79
2023/03/24 11:38:59;;;;;;;2.80;1.77;;;;;;;16.56;78.25;99255.34;4848645;29;20049;-80
2023/03/24 11:41:26;;;;;;;2.92;1.85;;;;;;;16.77;74.77;99269.94;4866277;29;20133;-79
2023/03/24 11:44:15;;;;;;;2.42;1.65;;;;;;;16.85;76.71;99262.25;4859665;29;20088;-80
2023/03/24 11:46:43;;;;;;;2.15;1.10;;;;;;;17.05;71.77;99284.03;4847704;29;20512;-79
2023/03/24 11:49:12;;;;;;;1.60;1.00;;;;;;;16.91;65.53;99262.81;4840253;29;20053;-79
2023/03/24 11:51:41;;;;;;;1.73;1.23;;;;;;;16.78;65.31;99266.31;4866505;29;20456;-80